sensor_id;sensor_type;location;lat;lon;timestamp;temperature;humidity
2056;DHT22;1033;52.560;13.374;2022-12-07T00:01:47;2.80;99.90
2056;DHT22;1033;52.560;13.374;2022-12-07T00:04:25;2.80;99.90
2056;DHT22;1033;52.560;13.374;2022-12-07T00:06:55;2.80;99.90
2056;DHT22;1033;52.560;13.374;2022-12-07T00:09:24;2.90;99.90
2056;DHT22;1033;52.560;13.374;2022-12-07T00:11:53;2.70;99.90
2056;DHT22;1033;52.560;13.374;2022-12-07T00:14:22;2.70;99.90
2056;DHT22;1033;52.560;13.374;2022-12-07T00:16:52;2.70;99.90
2056;DHT22;1033;52.560;13.374;2022-12-07T00:19:21;2.70;99.90
2056;DHT22;1033;52.560;13.374;2022-12-07T00:21:50;2.70;99.90
2056;DHT22;1033;52.560;13.374;2022-12-07T00:24:21;2.70;99.90
2056;DHT22;1033;52.560;13.374;2022-12-07T00:26:51;2.70;99.90
2056;DHT22;1033;52.560;13.374;2022-12-07T00:29:23;2.60;99.90
2056;DHT22;1033;52.560;13.374;2022-12-07T00:31:53;2.60;99.90
2056;DHT22;1033;52.560;13.374;2022-12-07T00:34:23;2.70;99.90
2056;DHT22;1033;52.560;13.374;2022-12-07T00:36:53;2.70;99.90
2056;DHT22;1033;52.560;13.374;2022-12-07T00:39:26;2.80;99.90
2056;DHT22;1033;52.560;13.374;2022-12-07T00:41:56;2.70;99.90
2056;DHT22;1033;52.560;13.374;2022-12-07T00:44:26;2.70;99.90
2056;DHT22;1033;52.560;13.374;2022-12-07T00:46:56;2.70;99.90
2056;DHT22;1033;52.560;13.374;2022-12-07T00:49:27;2.70;99.90
2056;DHT22;1033;52.560;13.374;2022-12-07T00:51:57;2.70;99.90
2056;DHT22;1033;52.560;13.374;2022-12-07T00:54:31;2.60;99.90
2056;DHT22;1033;52.560;13.374;2022-12-07T00:57:01;2.50;99.90
2056;DHT22;1033;52.560;13.374;2022-12-07T00:59:33;2.50;99.90
2056;DHT22;1033;52.560;13.374;2022-12-07T01:02:02;2.40;99.90
2056;DHT22;1033;52.560;13.374;2022-12-07T01:04:33;2.40;99.90
2056;DHT22;1033;52.560;13.374;2022-12-07T01:07:04;2.20;99.90
2056;DHT22;1033;52.560;13.374;2022-12-07T01:09:35;2.10;99.90
2056;DHT22;1033;52.560;13.374;2022-12-07T01:12:06;2.10;99.90
2056;DHT22;1033;52.560;13.374;2022-12-07T01:14:36;2.10;99.90
2056;DHT22;1033;52.560;13.374;2022-12-07T01:18:45;2.20;99.90
2056;DHT22;1033;52.560;13.374;2022-12-07T01:22:28;2.20;99.90
2056;DHT22;1033;52.560;13.374;2022-12-07T01:25:01;2.20;99.90
2056;DHT22;1033;52.560;13.374;2022-12-07T01:27:32;2.20;99.90
2056;DHT22;1033;52.560;13.374;2022-12-07T01:30:04;2.20;99.90
2056;DHT22;1033;52.560;13.374;2022-12-07T01:32:37;2.20;99.90
2056;DHT22;1033;52.560;13.374;2022-12-07T01:35:07;2.10;99.90
2056;DHT22;1033;52.560;13.374;2022-12-07T01:37:38;2.10;99.90
2056;DHT22;1033;52.560;13.374;2022-12-07T01:40:11;2.10;99.90
2056;DHT22;1033;52.560;13.374;2022-12-07T01:42:43;2.20;99.90
2056;DHT22;1033;52.560;13.374;2022-12-07T01:45:44;2.20;99.90
2056;DHT22;1033;52.560;13.374;2022-12-07T01:48:18;2.20;99.90
2056;DHT22;1033;52.560;13.374;2022-12-07T01:50:53;2.20;99.90
2056;DHT22;1033;52.560;13.374;2022-12-07T01:53:29;2.20;99.90
2056;DHT22;1033;52.560;13.374;2022-12-07T01:56:03;2.20;99.90
2056;DHT22;1033;52.560;13.374;2022-12-07T01:58:37;2.20;99.90
2056;DHT22;1033;52.560;13.374;2022-12-07T02:01:07;2.20;99.90
2056;DHT22;1033;52.560;13.374;2022-12-07T02:03:41;2.30;99.90
2056;DHT22;1033;52.560;13.374;2022-12-07T02:06:16;2.30;99.90
2056;DHT22;1033;52.560;13.374;2022-12-07T02:08:50;2.30;99.90
2056;DHT22;1033;52.560;13.374;2022-12-07T02:11:22;2.20;99.90
2056;DHT22;1033;52.560;13.374;2022-12-07T02:13:53;2.10;99.90
2056;DHT22;1033;52.560;13.374;2022-12-07T02:16:53;2.10;99.90
2056;DHT22;1033;52.560;13.374;2022-12-07T02:29:23;2.00;99.90
2056;DHT22;1033;52.560;13.374;2022-12-07T02:32:07;2.10;99.90
2056;DHT22;1033;52.560;13.374;2022-12-07T02:34:48;2.10;99.90
2056;DHT22;1033;52.560;13.374;2022-12-07T02:37:30;2.00;99.90
2056;DHT22;1033;52.560;13.374;2022-12-07T02:40:12;1.90;99.90
2056;DHT22;1033;52.560;13.374;2022-12-07T02:43:02;1.90;99.90
2056;DHT22;1033;52.560;13.374;2022-12-07T02:45:39;1.80;99.90
2056;DHT22;1033;52.560;13.374;2022-12-07T02:48:14;1.80;99.90
2056;DHT22;1033;52.560;13.374;2022-12-07T02:50:49;1.80;99.90
2056;DHT22;1033;52.560;13.374;2022-12-07T02:53:33;1.80;99.90
2056;DHT22;1033;52.560;13.374;2022-12-07T02:56:13;1.90;99.90
2056;DHT22;1033;52.560;13.374;2022-12-07T02:59:02;1.80;99.90
2056;DHT22;1033;52.560;13.374;2022-12-07T03:01:52;1.80;99.90
2056;DHT22;1033;52.560;13.374;2022-12-07T03:04:38;1.80;99.90
2056;DHT22;1033;52.560;13.374;2022-12-07T03:07:24;1.80;99.90
2056;DHT22;1033;52.560;13.374;2022-12-07T03:10:04;1.90;99.90
2056;DHT22;1033;52.560;13.374;2022-12-07T03:12:46;1.90;99.90
2056;DHT22;1033;52.560;13.374;2022-12-07T03:15:31;1.90;99.90
2056;DHT22;1033;52.560;13.374;2022-12-07T03:18:04;1.90;99.90
2056;DHT22;1033;52.560;13.374;2022-12-07T03:20:37;1.90;99.90
2056;DHT22;1033;52.560;13.374;2022-12-07T03:23:12;2.00;99.90
2056;DHT22;1033;52.560;13.374;2022-12-07T03:25:48;1.90;99.90
2056;DHT22;1033;52.560;13.374;2022-12-07T03:28:31;2.00;99.90
2056;DHT22;1033;52.560;13.374;2022-12-07T03:31:12;2.10;99.90
2056;DHT22;1033;52.560;13.374;2022-12-07T03:33:51;2.10;99.90
2056;DHT22;1033;52.560;13.374;2022-12-07T03:36:32;2.20;99.90
2056;DHT22;1033;52.560;13.374;2022-12-07T03:39:17;2.20;99.90
2056;DHT22;1033;52.560;13.374;2022-12-07T03:41:54;2.30;99.90
2056;DHT22;1033;52.560;13.374;2022-12-07T03:44:56;2.30;99.90
2056;DHT22;1033;52.560;13.374;2022-12-07T03:47:29;2.50;99.90
2056;DHT22;1033;52.560;13.374;2022-12-07T03:50:09;2.40;99.90
2056;DHT22;1033;52.560;13.374;2022-12-07T03:52:50;2.60;99.90
2056;DHT22;1033;52.560;13.374;2022-12-07T03:55:28;2.60;99.90
2056;DHT22;1033;52.560;13.374;2022-12-07T03:58:06;2.60;99.90
2056;DHT22;1033;52.560;13.374;2022-12-07T04:00:38;2.60;99.90
2056;DHT22;1033;52.560;13.374;2022-12-07T04:03:11;2.50;99.90
2056;DHT22;1033;52.560;13.374;2022-12-07T04:05:45;2.60;99.90
2056;DHT22;1033;52.560;13.374;2022-12-07T04:08:17;2.60;99.90
2056;DHT22;1033;52.560;13.374;2022-12-07T04:10:48;2.50;99.90
2056;DHT22;1033;52.560;13.374;2022-12-07T04:13:19;2.50;99.90
2056;DHT22;1033;52.560;13.374;2022-12-07T04:15:53;2.60;99.90
2056;DHT22;1033;52.560;13.374;2022-12-07T04:18:24;2.60;99.90
2056;DHT22;1033;52.560;13.374;2022-12-07T04:20:55;2.70;99.90
2056;DHT22;1033;52.560;13.374;2022-12-07T04:23:25;2.60;99.90
2056;DHT22;1033;52.560;13.374;2022-12-07T04:25:55;2.70;99.90
2056;DHT22;1033;52.560;13.374;2022-12-07T04:28:25;2.70;99.90
2056;DHT22;1033;52.560;13.374;2022-12-07T04:30:56;2.70;99.90
2056;DHT22;1033;52.560;13.374;2022-12-07T04:33:30;2.70;99.90
2056;DHT22;1033;52.560;13.374;2022-12-07T04:36:03;2.60;99.90
2056;DHT22;1033;52.560;13.374;2022-12-07T04:38:33;2.60;99.90
2056;DHT22;1033;52.560;13.374;2022-12-07T04:41:07;2.50;99.90
2056;DHT22;1033;52.560;13.374;2022-12-07T04:43:38;2.60;99.90
2056;DHT22;1033;52.560;13.374;2022-12-07T04:46:08;2.60;99.90
2056;DHT22;1033;52.560;13.374;2022-12-07T04:48:40;2.60;99.90
2056;DHT22;1033;52.560;13.374;2022-12-07T04:51:15;2.60;99.90
2056;DHT22;1033;52.560;13.374;2022-12-07T04:53:48;2.60;99.90
2056;DHT22;1033;52.560;13.374;2022-12-07T04:56:18;2.70;99.90
2056;DHT22;1033;52.560;13.374;2022-12-07T04:58:49;2.70;99.90
2056;DHT22;1033;52.560;13.374;2022-12-07T05:01:24;2.70;99.90
2056;DHT22;1033;52.560;13.374;2022-12-07T05:03:55;2.70;99.90
2056;DHT22;1033;52.560;13.374;2022-12-07T05:06:29;2.70;99.90
2056;DHT22;1033;52.560;13.374;2022-12-07T05:09:03;2.70;99.90
2056;DHT22;1033;52.560;13.374;2022-12-07T05:11:34;2.60;99.90
2056;DHT22;1033;52.560;13.374;2022-12-07T05:14:13;2.70;99.90
2056;DHT22;1033;52.560;13.374;2022-12-07T05:16:46;2.70;99.90
2056;DHT22;1033;52.560;13.374;2022-12-07T05:19:19;2.70;99.90
2056;DHT22;1033;52.560;13.374;2022-12-07T05:21:53;2.80;99.90
2056;DHT22;1033;52.560;13.374;2022-12-07T05:24:24;2.80;99.90
2056;DHT22;1033;52.560;13.374;2022-12-07T05:26:54;2.80;99.90
2056;DHT22;1033;52.560;13.374;2022-12-07T05:29:25;2.80;99.90
2056;DHT22;1033;52.560;13.374;2022-12-07T05:31:59;2.80;99.90
2056;DHT22;1033;52.560;13.374;2022-12-07T05:34:30;2.80;99.90
2056;DHT22;1033;52.560;13.374;2022-12-07T05:37:12;2.80;99.90
2056;DHT22;1033;52.560;13.374;2022-12-07T05:39:42;2.90;99.90
2056;DHT22;1033;52.560;13.374;2022-12-07T05:42:15;2.90;99.90
2056;DHT22;1033;52.560;13.374;2022-12-07T05:44:47;2.90;99.90
2056;DHT22;1033;52.560;13.374;2022-12-07T05:47:18;2.80;99.90
2056;DHT22;1033;52.560;13.374;2022-12-07T05:49:50;2.90;99.90
2056;DHT22;1033;52.560;13.374;2022-12-07T05:52:25;2.90;99.90
2056;DHT22;1033;52.560;13.374;2022-12-07T05:54:55;3.00;99.90
2056;DHT22;1033;52.560;13.374;2022-12-07T05:57:25;2.90;99.90
2056;DHT22;1033;52.560;13.374;2022-12-07T05:59:55;3.00;99.90
2056;DHT22;1033;52.560;13.374;2022-12-07T06:02:23;3.00;99.90
2056;DHT22;1033;52.560;13.374;2022-12-07T06:04:54;3.00;99.90
2056;DHT22;1033;52.560;13.374;2022-12-07T06:07:25;3.10;99.90
2056;DHT22;1033;52.560;13.374;2022-12-07T06:09:57;3.00;99.90
2056;DHT22;1033;52.560;13.374;2022-12-07T06:12:27;3.10;99.90
2056;DHT22;1033;52.560;13.374;2022-12-07T06:15:03;3.10;99.90
2056;DHT22;1033;52.560;13.374;2022-12-07T06:17:36;3.10;99.90
2056;DHT22;1033;52.560;13.374;2022-12-07T06:20:07;3.20;99.90
2056;DHT22;1033;52.560;13.374;2022-12-07T06:22:49;3.30;99.90
2056;DHT22;1033;52.560;13.374;2022-12-07T06:25:22;3.30;99.90
2056;DHT22;1033;52.560;13.374;2022-12-07T06:27:53;3.30;99.90
2056;DHT22;1033;52.560;13.374;2022-12-07T06:30:25;3.30;99.90
2056;DHT22;1033;52.560;13.374;2022-12-07T06:32:56;3.20;99.90
2056;DHT22;1033;52.560;13.374;2022-12-07T06:35:26;3.20;99.90
2056;DHT22;1033;52.560;13.374;2022-12-07T06:38:01;3.20;99.90
2056;DHT22;1033;52.560;13.374;2022-12-07T06:40:33;3.20;99.90
2056;DHT22;1033;52.560;13.374;2022-12-07T06:43:04;3.30;99.90
2056;DHT22;1033;52.560;13.374;2022-12-07T06:45:37;3.20;99.90
2056;DHT22;1033;52.560;13.374;2022-12-07T06:48:10;3.30;99.90
2056;DHT22;1033;52.560;13.374;2022-12-07T06:50:40;3.30;99.90
2056;DHT22;1033;52.560;13.374;2022-12-07T06:53:22;3.30;99.90
2056;DHT22;1033;52.560;13.374;2022-12-07T06:55:52;3.30;99.90
2056;DHT22;1033;52.560;13.374;2022-12-07T06:58:22;3.40;99.90
2056;DHT22;1033;52.560;13.374;2022-12-07T07:00:54;3.30;99.90
2056;DHT22;1033;52.560;13.374;2022-12-07T07:03:27;3.40;99.90
2056;DHT22;1033;52.560;13.374;2022-12-07T07:05:56;3.40;99.90
2056;DHT22;1033;52.560;13.374;2022-12-07T07:08:32;3.40;99.90
2056;DHT22;1033;52.560;13.374;2022-12-07T07:11:02;3.40;99.90
2056;DHT22;1033;52.560;13.374;2022-12-07T07:13:48;3.40;99.90
2056;DHT22;1033;52.560;13.374;2022-12-07T07:16:19;3.40;99.90
2056;DHT22;1033;52.560;13.374;2022-12-07T07:18:50;3.40;99.90
2056;DHT22;1033;52.560;13.374;2022-12-07T07:21:24;3.50;99.90
2056;DHT22;1033;52.560;13.374;2022-12-07T07:23:58;3.60;99.90
2056;DHT22;1033;52.560;13.374;2022-12-07T07:26:31;3.50;99.90
2056;DHT22;1033;52.560;13.374;2022-12-07T07:29:04;3.50;99.90
2056;DHT22;1033;52.560;13.374;2022-12-07T07:31:34;3.50;99.90
2056;DHT22;1033;52.560;13.374;2022-12-07T07:34:04;3.50;99.90
2056;DHT22;1033;52.560;13.374;2022-12-07T07:36:35;3.50;99.90
2056;DHT22;1033;52.560;13.374;2022-12-07T07:39:07;3.50;99.90
2056;DHT22;1033;52.560;13.374;2022-12-07T07:41:41;3.50;99.90
2056;DHT22;1033;52.560;13.374;2022-12-07T07:44:14;3.50;99.90
2056;DHT22;1033;52.560;13.374;2022-12-07T07:46:45;3.50;99.90
2056;DHT22;1033;52.560;13.374;2022-12-07T07:49:20;3.50;99.90
2056;DHT22;1033;52.560;13.374;2022-12-07T07:51:51;3.60;99.90
2056;DHT22;1033;52.560;13.374;2022-12-07T07:54:22;3.70;99.90
2056;DHT22;1033;52.560;13.374;2022-12-07T07:56:52;3.70;99.90
2056;DHT22;1033;52.560;13.374;2022-12-07T07:59:23;3.70;99.90
2056;DHT22;1033;52.560;13.374;2022-12-07T08:01:53;3.70;99.90
2056;DHT22;1033;52.560;13.374;2022-12-07T08:04:23;3.70;99.90
2056;DHT22;1033;52.560;13.374;2022-12-07T08:06:53;3.70;99.90
2056;DHT22;1033;52.560;13.374;2022-12-07T08:09:27;3.70;99.90
2056;DHT22;1033;52.560;13.374;2022-12-07T08:11:58;3.70;99.90
2056;DHT22;1033;52.560;13.374;2022-12-07T08:14:32;3.70;99.90
2056;DHT22;1033;52.560;13.374;2022-12-07T08:17:15;3.70;99.90
2056;DHT22;1033;52.560;13.374;2022-12-07T08:19:47;3.70;99.90
2056;DHT22;1033;52.560;13.374;2022-12-07T08:22:18;3.70;99.90
2056;DHT22;1033;52.560;13.374;2022-12-07T08:24:49;3.80;99.90
2056;DHT22;1033;52.560;13.374;2022-12-07T08:27:19;3.80;99.90
2056;DHT22;1033;52.560;13.374;2022-12-07T08:29:54;3.80;99.90
2056;DHT22;1033;52.560;13.374;2022-12-07T08:32:28;3.80;99.90
2056;DHT22;1033;52.560;13.374;2022-12-07T08:34:59;3.80;99.90
2056;DHT22;1033;52.560;13.374;2022-12-07T08:37:34;3.80;99.90
2056;DHT22;1033;52.560;13.374;2022-12-07T08:40:06;3.80;99.90
2056;DHT22;1033;52.560;13.374;2022-12-07T08:42:37;3.80;99.90
2056;DHT22;1033;52.560;13.374;2022-12-07T08:45:12;3.80;99.90
2056;DHT22;1033;52.560;13.374;2022-12-07T08:48:11;3.80;99.90
2056;DHT22;1033;52.560;13.374;2022-12-07T08:50:49;3.90;99.90
2056;DHT22;1033;52.560;13.374;2022-12-07T08:53:20;3.80;99.90
2056;DHT22;1033;52.560;13.374;2022-12-07T08:56:08;3.90;99.90
2056;DHT22;1033;52.560;13.374;2022-12-07T08:58:38;3.90;99.90
2056;DHT22;1033;52.560;13.374;2022-12-07T09:01:11;3.90;99.90
2056;DHT22;1033;52.560;13.374;2022-12-07T09:03:44;3.90;99.90
2056;DHT22;1033;52.560;13.374;2022-12-07T09:06:14;3.90;49.20
2056;DHT22;1033;52.560;13.374;2022-12-07T09:08:48;3.90;23.10
2056;DHT22;1033;52.560;13.374;2022-12-07T09:11:31;3.90;8.80
2056;DHT22;1033;52.560;13.374;2022-12-07T09:14:01;4.00;1.00
2056;DHT22;1033;52.560;13.374;2022-12-07T09:16:31;3.90;1.00
2056;DHT22;1033;52.560;13.374;2022-12-07T09:19:00;4.00;1.00
2056;DHT22;1033;52.560;13.374;2022-12-07T09:21:29;3.90;1.00
2056;DHT22;1033;52.560;13.374;2022-12-07T09:23:59;3.90;1.00
2056;DHT22;1033;52.560;13.374;2022-12-07T09:26:28;3.80;1.00
2056;DHT22;1033;52.560;13.374;2022-12-07T09:28:59;3.70;99.90
2056;DHT22;1033;52.560;13.374;2022-12-07T09:31:27;3.60;99.90
2056;DHT22;1033;52.560;13.374;2022-12-07T09:33:58;3.70;99.90
2056;DHT22;1033;52.560;13.374;2022-12-07T09:36:29;3.60;99.90
2056;DHT22;1033;52.560;13.374;2022-12-07T09:38:57;3.50;99.90
2056;DHT22;1033;52.560;13.374;2022-12-07T09:41:27;3.60;99.90
2056;DHT22;1033;52.560;13.374;2022-12-07T09:44:04;3.70;99.90
2056;DHT22;1033;52.560;13.374;2022-12-07T09:46:36;3.70;99.90
2056;DHT22;1033;52.560;13.374;2022-12-07T09:49:12;3.70;99.90
2056;DHT22;1033;52.560;13.374;2022-12-07T09:51:45;3.60;99.90
2056;DHT22;1033;52.560;13.374;2022-12-07T09:54:16;3.60;99.90
2056;DHT22;1033;52.560;13.374;2022-12-07T09:57:12;3.50;99.90
2056;DHT22;1033;52.560;13.374;2022-12-07T09:59:42;3.50;99.90
2056;DHT22;1033;52.560;13.374;2022-12-07T10:02:25;3.40;99.90
2056;DHT22;1033;52.560;13.374;2022-12-07T10:05:05;3.40;99.90
2056;DHT22;1033;52.560;13.374;2022-12-07T10:07:35;3.40;99.90
2056;DHT22;1033;52.560;13.374;2022-12-07T10:10:12;3.50;99.90
2056;DHT22;1033;52.560;13.374;2022-12-07T10:12:54;3.60;99.90
2056;DHT22;1033;52.560;13.374;2022-12-07T10:18:53;3.60;99.90
2056;DHT22;1033;52.560;13.374;2022-12-07T10:21:24;3.80;99.90
2056;DHT22;1033;52.560;13.374;2022-12-07T10:24:04;3.70;99.90
2056;DHT22;1033;52.560;13.374;2022-12-07T10:26:50;3.70;99.90
2056;DHT22;1033;52.560;13.374;2022-12-07T10:29:22;3.70;99.90
2056;DHT22;1033;52.560;13.374;2022-12-07T10:31:57;3.80;99.90
2056;DHT22;1033;52.560;13.374;2022-12-07T10:34:32;3.90;99.90
2056;DHT22;1033;52.560;13.374;2022-12-07T10:37:16;3.90;99.90
2056;DHT22;1033;52.560;13.374;2022-12-07T10:39:53;4.00;99.90
2056;DHT22;1033;52.560;13.374;2022-12-07T10:42:27;4.10;99.90
2056;DHT22;1033;52.560;13.374;2022-12-07T10:45:09;4.20;99.90
2056;DHT22;1033;52.560;13.374;2022-12-07T10:47:48;4.10;99.90
2056;DHT22;1033;52.560;13.374;2022-12-07T10:53:51;3.90;99.90
2056;DHT22;1033;52.560;13.374;2022-12-07T10:56:41;3.70;99.90
2056;DHT22;1033;52.560;13.374;2022-12-07T10:59:44;3.60;99.90
2056;DHT22;1033;52.560;13.374;2022-12-07T11:02:55;3.70;99.90
2056;DHT22;1033;52.560;13.374;2022-12-07T11:05:52;3.80;99.90
2056;DHT22;1033;52.560;13.374;2022-12-07T11:08:41;3.80;99.90
2056;DHT22;1033;52.560;13.374;2022-12-07T11:11:25;4.00;99.90
2056;DHT22;1033;52.560;13.374;2022-12-07T11:14:05;4.00;99.90
2056;DHT22;1033;52.560;13.374;2022-12-07T11:16:56;3.90;99.90
2056;DHT22;1033;52.560;13.374;2022-12-07T11:19:48;3.80;99.90
2056;DHT22;1033;52.560;13.374;2022-12-07T11:22:36;3.80;99.90
2056;DHT22;1033;52.560;13.374;2022-12-07T11:25:20;3.70;99.90
2056;DHT22;1033;52.560;13.374;2022-12-07T11:28:11;3.90;99.90
2056;DHT22;1033;52.560;13.374;2022-12-07T11:30:58;4.20;99.90
2056;DHT22;1033;52.560;13.374;2022-12-07T11:38:15;4.10;99.90
2056;DHT22;1033;52.560;13.374;2022-12-07T11:41:00;4.10;99.90
2056;DHT22;1033;52.560;13.374;2022-12-07T11:43:54;4.20;99.90
2056;DHT22;1033;52.560;13.374;2022-12-07T11:46:33;4.20;99.90
2056;DHT22;1033;52.560;13.374;2022-12-07T11:49:17;4.20;99.90
2056;DHT22;1033;52.560;13.374;2022-12-07T11:51:56;4.20;99.90
2056;DHT22;1033;52.560;13.374;2022-12-07T11:54:35;4.20;99.90
2056;DHT22;1033;52.560;13.374;2022-12-07T11:57:16;4.20;99.90
2056;DHT22;1033;52.560;13.374;2022-12-07T11:59:56;4.30;99.90
2056;DHT22;1033;52.560;13.374;2022-12-07T12:02:36;4.40;99.90
2056;DHT22;1033;52.560;13.374;2022-12-07T12:05:16;4.50;99.90
2056;DHT22;1033;52.560;13.374;2022-12-07T12:12:42;4.40;99.90
2056;DHT22;1033;52.560;13.374;2022-12-07T12:16:06;4.40;99.90
2056;DHT22;1033;52.560;13.374;2022-12-07T12:19:00;4.50;99.90
2056;DHT22;1033;52.560;13.374;2022-12-07T12:21:41;4.40;99.90
2056;DHT22;1033;52.560;13.374;2022-12-07T12:24:22;4.50;99.90
2056;DHT22;1033;52.560;13.374;2022-12-07T12:26:58;4.50;99.90
2056;DHT22;1033;52.560;13.374;2022-12-07T12:29:37;4.60;99.90
2056;DHT22;1033;52.560;13.374;2022-12-07T12:32:17;4.60;99.90
2056;DHT22;1033;52.560;13.374;2022-12-07T12:35:02;4.50;99.90
2056;DHT22;1033;52.560;13.374;2022-12-07T12:37:53;4.50;99.90
2056;DHT22;1033;52.560;13.374;2022-12-07T12:40:51;4.50;99.90
2056;DHT22;1033;52.560;13.374;2022-12-07T12:43:47;4.60;99.90
2056;DHT22;1033;52.560;13.374;2022-12-07T12:46:47;4.50;99.90
2056;DHT22;1033;52.560;13.374;2022-12-07T12:49:37;4.50;99.90
2056;DHT22;1033;52.560;13.374;2022-12-07T12:55:30;4.50;99.90
2056;DHT22;1033;52.560;13.374;2022-12-07T12:58:47;4.40;99.90
2056;DHT22;1033;52.560;13.374;2022-12-07T13:01:46;4.40;99.90
2056;DHT22;1033;52.560;13.374;2022-12-07T13:07:58;4.40;99.90
2056;DHT22;1033;52.560;13.374;2022-12-07T13:10:42;4.50;99.90
2056;DHT22;1033;52.560;13.374;2022-12-07T13:13:33;4.50;99.90
2056;DHT22;1033;52.560;13.374;2022-12-07T13:16:36;4.40;99.90
2056;DHT22;1033;52.560;13.374;2022-12-07T13:22:41;4.40;99.90
2056;DHT22;1033;52.560;13.374;2022-12-07T13:25:30;4.40;99.90
2056;DHT22;1033;52.560;13.374;2022-12-07T13:28:14;4.40;99.90
2056;DHT22;1033;52.560;13.374;2022-12-07T13:30:55;4.40;99.90
2056;DHT22;1033;52.560;13.374;2022-12-07T13:33:35;4.40;99.90
2056;DHT22;1033;52.560;13.374;2022-12-07T13:36:16;4.40;99.90
2056;DHT22;1033;52.560;13.374;2022-12-07T13:38:52;4.40;99.90
2056;DHT22;1033;52.560;13.374;2022-12-07T13:41:24;4.30;99.90
2056;DHT22;1033;52.560;13.374;2022-12-07T13:44:02;4.30;99.90
2056;DHT22;1033;52.560;13.374;2022-12-07T13:46:44;4.30;99.90
2056;DHT22;1033;52.560;13.374;2022-12-07T13:49:47;4.30;99.90
2056;DHT22;1033;52.560;13.374;2022-12-07T13:52:26;4.40;99.90
2056;DHT22;1033;52.560;13.374;2022-12-07T13:55:05;4.40;99.90
2056;DHT22;1033;52.560;13.374;2022-12-07T13:57:45;4.50;99.90
2056;DHT22;1033;52.560;13.374;2022-12-07T14:00:29;4.40;99.90
2056;DHT22;1033;52.560;13.374;2022-12-07T14:03:01;4.40;99.90
2056;DHT22;1033;52.560;13.374;2022-12-07T14:05:35;4.50;99.90
2056;DHT22;1033;52.560;13.374;2022-12-07T14:08:23;4.40;99.90
2056;DHT22;1033;52.560;13.374;2022-12-07T14:11:00;4.40;99.90
2056;DHT22;1033;52.560;13.374;2022-12-07T14:13:32;4.40;99.90
2056;DHT22;1033;52.560;13.374;2022-12-07T14:16:21;4.40;99.90
2056;DHT22;1033;52.560;13.374;2022-12-07T14:18:54;4.40;99.90
2056;DHT22;1033;52.560;13.374;2022-12-07T14:21:26;4.30;99.90
2056;DHT22;1033;52.560;13.374;2022-12-07T14:24:19;4.30;99.90
2056;DHT22;1033;52.560;13.374;2022-12-07T14:26:50;4.30;99.90
2056;DHT22;1033;52.560;13.374;2022-12-07T14:29:30;4.30;99.90
2056;DHT22;1033;52.560;13.374;2022-12-07T14:32:22;4.30;99.90
2056;DHT22;1033;52.560;13.374;2022-12-07T14:35:13;4.30;99.90
2056;DHT22;1033;52.560;13.374;2022-12-07T14:37:48;4.30;99.90
2056;DHT22;1033;52.560;13.374;2022-12-07T14:40:29;4.30;99.90
2056;DHT22;1033;52.560;13.374;2022-12-07T14:43:02;4.20;99.90
2056;DHT22;1033;52.560;13.374;2022-12-07T14:45:34;4.20;99.90
2056;DHT22;1033;52.560;13.374;2022-12-07T14:48:04;4.10;99.90
2056;DHT22;1033;52.560;13.374;2022-12-07T14:50:53;4.20;99.90
2056;DHT22;1033;52.560;13.374;2022-12-07T14:53:46;4.10;99.90
2056;DHT22;1033;52.560;13.374;2022-12-07T14:56:25;4.00;99.90
2056;DHT22;1033;52.560;13.374;2022-12-07T14:58:55;4.00;99.90
2056;DHT22;1033;52.560;13.374;2022-12-07T15:01:24;3.90;99.90
2056;DHT22;1033;52.560;13.374;2022-12-07T15:03:54;3.80;1.00
2056;DHT22;1033;52.560;13.374;2022-12-07T15:06:23;3.70;1.00
2056;DHT22;1033;52.560;13.374;2022-12-07T15:08:53;3.70;1.00
2056;DHT22;1033;52.560;13.374;2022-12-07T15:11:23;3.60;1.00
2056;DHT22;1033;52.560;13.374;2022-12-07T15:14:01;3.60;1.00
2056;DHT22;1033;52.560;13.374;2022-12-07T15:16:40;3.50;1.00
2056;DHT22;1033;52.560;13.374;2022-12-07T15:19:30;3.50;1.00
2056;DHT22;1033;52.560;13.374;2022-12-07T15:22:01;3.50;1.00
2056;DHT22;1033;52.560;13.374;2022-12-07T15:24:30;3.50;1.00
2056;DHT22;1033;52.560;13.374;2022-12-07T15:27:01;3.50;1.00
2056;DHT22;1033;52.560;13.374;2022-12-07T15:29:31;3.50;1.00
2056;DHT22;1033;52.560;13.374;2022-12-07T15:32:00;3.50;1.00
2056;DHT22;1033;52.560;13.374;2022-12-07T15:34:30;3.40;1.00
2056;DHT22;1033;52.560;13.374;2022-12-07T15:37:07;3.30;1.00
2056;DHT22;1033;52.560;13.374;2022-12-07T15:39:36;3.30;1.00
2056;DHT22;1033;52.560;13.374;2022-12-07T15:42:07;3.20;1.00
2056;DHT22;1033;52.560;13.374;2022-12-07T15:44:38;3.30;1.00
2056;DHT22;1033;52.560;13.374;2022-12-07T15:47:25;3.30;1.00
2056;DHT22;1033;52.560;13.374;2022-12-07T15:49:55;3.30;1.00
2056;DHT22;1033;52.560;13.374;2022-12-07T15:52:24;3.30;1.00
2056;DHT22;1033;52.560;13.374;2022-12-07T15:54:55;3.40;1.00
2056;DHT22;1033;52.560;13.374;2022-12-07T15:57:31;3.40;1.00
2056;DHT22;1033;52.560;13.374;2022-12-07T16:00:04;3.50;1.00
2056;DHT22;1033;52.560;13.374;2022-12-07T16:02:35;3.50;1.00
2056;DHT22;1033;52.560;13.374;2022-12-07T16:05:07;3.50;99.90
2056;DHT22;1033;52.560;13.374;2022-12-07T16:07:37;3.50;1.00
2056;DHT22;1033;52.560;13.374;2022-12-07T16:10:08;3.50;1.00
2056;DHT22;1033;52.560;13.374;2022-12-07T16:12:39;3.60;99.90
2056;DHT22;1033;52.560;13.374;2022-12-07T16:15:10;3.60;99.90
2056;DHT22;1033;52.560;13.374;2022-12-07T16:17:41;3.50;99.90
2056;DHT22;1033;52.560;13.374;2022-12-07T16:20:11;3.40;99.90
2056;DHT22;1033;52.560;13.374;2022-12-07T16:22:41;3.40;99.90
2056;DHT22;1033;52.560;13.374;2022-12-07T16:25:11;3.40;99.90
2056;DHT22;1033;52.560;13.374;2022-12-07T16:27:42;3.30;99.90
2056;DHT22;1033;52.560;13.374;2022-12-07T16:30:13;3.20;1.00
2056;DHT22;1033;52.560;13.374;2022-12-07T16:32:44;3.20;1.00
2056;DHT22;1033;52.560;13.374;2022-12-07T16:35:13;3.10;1.00
2056;DHT22;1033;52.560;13.374;2022-12-07T16:37:42;3.00;1.00
2056;DHT22;1033;52.560;13.374;2022-12-07T16:40:12;2.90;1.00
2056;DHT22;1033;52.560;13.374;2022-12-07T16:42:42;2.90;1.00
2056;DHT22;1033;52.560;13.374;2022-12-07T16:45:11;2.80;1.00
2056;DHT22;1033;52.560;13.374;2022-12-07T16:47:46;2.80;1.00
2056;DHT22;1033;52.560;13.374;2022-12-07T16:53:37;2.70;1.00
2056;DHT22;1033;52.560;13.374;2022-12-07T16:56:10;2.60;1.00
2056;DHT22;1033;52.560;13.374;2022-12-07T16:58:41;2.60;1.00
2056;DHT22;1033;52.560;13.374;2022-12-07T17:01:12;2.50;1.00
2056;DHT22;1033;52.560;13.374;2022-12-07T17:03:43;2.50;1.00
2056;DHT22;1033;52.560;13.374;2022-12-07T17:06:13;2.50;1.00
2056;DHT22;1033;52.560;13.374;2022-12-07T17:08:43;2.40;1.00
2056;DHT22;1033;52.560;13.374;2022-12-07T17:11:13;2.40;14.40
2056;DHT22;1033;52.560;13.374;2022-12-07T17:13:45;2.30;1.70
2056;DHT22;1033;52.560;13.374;2022-12-07T17:16:32;2.30;8.30
2056;DHT22;1033;52.560;13.374;2022-12-07T17:19:04;2.30;1.00
2056;DHT22;1033;52.560;13.374;2022-12-07T17:21:34;2.30;1.00
2056;DHT22;1033;52.560;13.374;2022-12-07T17:24:05;2.20;1.00
2056;DHT22;1033;52.560;13.374;2022-12-07T17:26:49;2.20;1.00
2056;DHT22;1033;52.560;13.374;2022-12-07T17:29:20;2.20;1.00
2056;DHT22;1033;52.560;13.374;2022-12-07T17:31:49;2.20;1.00
2056;DHT22;1033;52.560;13.374;2022-12-07T17:34:18;2.20;1.00
2056;DHT22;1033;52.560;13.374;2022-12-07T17:36:47;2.10;1.00
2056;DHT22;1033;52.560;13.374;2022-12-07T17:39:17;2.10;1.00
2056;DHT22;1033;52.560;13.374;2022-12-07T17:41:47;2.10;1.00
2056;DHT22;1033;52.560;13.374;2022-12-07T17:44:35;2.10;1.00